Página principal
METAR-TAF:

METAR-TAF

Aeroportos :

Aeroporto de Berlim-Tegel

Berlin, Alemanha

latitude: 52-34N, longitude: 013-19E, altura: 37 m

Observação actual do tempo

O boletim foi feito há 18 minutos, às 09:50 UTC
Vento 3 kt de sul, variando entre es-sudeste e oes-sudoeste
Temperatura 22°C
Humidade 50%
Pressão 1021 hPa
Visibilidade 10 km ou mais
Poucas nuvensa uma altura de 4500 ft
Nuvens fragmentadasa uma altura de 6000 ft

METAR: EDDT 180950Z 18003KT 120V240 9999 FEW045 BKN060 22/11 Q1021 NOSIG

Hora: 12:08 (10:08 UTC)

Previsão

O boletim foi feito há 5 horas e 8 minutos, às 05:00 UTC
Previsão válida de 18 às 06 UTC a 19 às 06 UTC
Vento 6 kt de norte
Visibilidade 10 km ou mais
Nuvens dispersasa uma altura de 3500 ft
Tornando-se
de 18 às 09 UTC a 18 às 11 UTC
Vento 6 kt de oeste

TAF: EDDT 180500Z 1806/1906 35006KT 9999 SCT035 BECMG 1809/1811 28006KT

Observações e previsões do tempo de mais de 4000 aeroportos (mensagens METAR e TAF).

As estações disponíveis são os pontos amarelos e vermelhos sobre o mapa.

Mova o rato sobre o mapa para ver o nome da estação.

Depois clique no ponto para visualizar as observações e previsões meteorológicas.

Para alterar o mapa : clique nos botões verdes com uma cruz preta para aumentar o zoom; no botão verde com uma pitada de zoom; ou nas setas verdes para mapas adjacentes.


METAR-TAF: